Aeroporto :







RITROVATECI SU...

 
LOGIN :

Iscrizione | Disclaimer

   EN    FR    IT 

 









Sommario :    VFR   VFR Marginale   IFR   IFR Intensivo   IFR Molto Intensivo
Visibilità : 
Base nubi : 
>= 8 km
>= 3000ft
5 / 8 km
1000 / 3000 ft
1500m / 5 km
500 / 1000 ft
800 / 1500m
200 / 500 ft
< 800m
< 200 ft
Simboli :   Temporali  Nebbia  Neve Forte  Precipitazioni Forti  Vento > 20 kt






- Altitudine del aeroporto : 9 ft
- Codice IATA : SJU


TJSJ - Luis Munoz Marin Int.

ULTIMO METAR :
  • 021156Z 08007KT 10SM FEW021 FEW040 SCT090 29/24 A3004 RMK AO2 SLP172 60001 70008 T02890239 10289 20256 52013

METARs OBSOLETI :
  • 021056Z 00000KT 10SM FEW038 SCT090 27/23 A3003 RMK AO2 SLP169 VCSH N T02720233
  • 020956Z 00000KT 10SM SCT024 SCT080 SCT110 26/23 A3001 RMK AO2 RAB25E39 SLP162 P0001 T02560228

TAF TJSJ
Valido dal 02 a 12 ore il 03 a 12 ore UTC


021120Z 0212/0312 VRB04KT P6SM VCSH SCT030
FM021300 08013KT P6SM FEW030 SCT050
FM021600 07015G23KT P6SM VCSH SCT030 SCT050
FM022200 09010KT P6SM FEW035 SCT050
FIR TJZS / America del Nord



MetMap, La meteo Aeronautica in un colpo d'occhio ! - Copyright ORBIFLY Dicembre 2007 - Disclaimer

ORBIFLY MET'MAP TEAM :

Programmazione e sviluppo : Alexandra Zaïnal
Concezione : Baudouin d'Aumeries
Aiuto per la programmazione : Marc-Olivier Méhu
Supporto tecnico e logistico : Manuel Goepfert
Aiuto per la traduzione : Arnaldo La Scala

Contatto : metmap@orbifly.com




FONTI E CREDITI :

   NOAA